METAR Data
IDs: Format: Raw Decoded Include TAF

Data at: 1353 UTC 12 Dec 2018

PAKN 121254Z 13003KT 10SM FEW041 FEW100 M17/M18 A2922 RMK AO2 SLP895 I1000 T11671183
PAKN 121154Z 20004KT 10SM FEW041 FEW100 M14/M16 A2921 RMK AO2 SLP891 70003 I1000 I6000 T11441161 11094 21172 53011
PAKN 121054Z 20003KT 10SM FEW041 FEW100 M14/M17 A2919 RMK AO2 SLP886 I1000 T11441167
PAKN 120954Z 14004KT 10SM FEW041 FEW100 M16/M18 A2918 RMK AO2 SLP884 I1000 T11561178
PAKN 120854Z 18005KT 10SM FEW041 FEW100 M13/M16 A2917 RMK AO2 SLP880 T11331156 400001139 51007
PAKN 120754Z 21006KT 10SM FEW041 FEW100 M12/M14 A2917 RMK AO2 SLP879 T11171139
PAKN 120654Z 22003KT 10SM FEW041 FEW100 M12/M14 A2916 RMK AO2 SLP876 T11221144
PAKN 120554Z 27005KT 10SM FEW041 FEW100 M09/M13 A2915 RMK AO2 SLP873 T10941133 11044 21100 53003
PAKN 120454Z 25007KT 10SM CLR M09/M13 A2914 RMK AO2 SLP869 T10941128
PAKN 120354Z 24005KT 10SM CLR M10/M13 A2914 RMK AO2 SLP870 T11001128
PAKN 120254Z 24005KT 10SM CLR M09/M12 A2914 RMK AO2 SLP869 T10891122 50007
PAKN 120154Z 26007KT 10SM CLR M07/M12 A2915 RMK AO2 SLP870 T10671117
PAKN 120054Z 27009KT 10SM CLR M06/M12 A2913 RMK AO2 SLP866 T10561117
PAKN 112354Z 28014G18KT 10SM CLR M04/M12 A2912 RMK AO2 SLP863 T10441122 11044 21050 51018
PAKN 112254Z 28013G22KT 10SM CLR M04/M11 A2911 RMK AO2 SLP858 T10441111
PAKN 112154Z 28018G23KT 10SM CLR M04/M12 A2909 RMK AO2 SLP850 T10441117
PAKN 112054Z 28015G23KT 10SM CLR M04/M11 A2907 RMK AO2 SLP845 T10441111 51037
PAKN 111954Z 27017G22KT 10SM CLR M04/M11 A2904 RMK AO2 PK WND 27026/1942 SLP835 T10441111
PAKN 111854Z 27018G24KT 10SM CLR M05/M12 A2900 RMK AO2 PK WND 27028/1755 SLP822 T10501117
PAKN 111754Z 27017G28KT 10SM CLR M05/M11 A2896 RMK AO2 PK WND 27028/1754 SLP807 60003 T10501111 11022 21050 51037
PAKN 111654Z 27021G27KT 10SM OVC100 M05/M11 A2893 RMK AO2 PK WND 26028/1632 SLP797 T10501106
PAKN 111554Z AUTO 27020G28KT 10SM OVC041 M04/M09 A2889 RMK AO2 PK WND 28033/1514 UPB32E39SNE32 SLP785 P0000 T10441094 TSNO
PAKN 111528Z AUTO 28018G30KT 6SM -SN OVC033 M04/M09 A2888 RMK AO2 PK WND 28033/1514 P0000 T10441094 TSNO
PAKN 111503Z AUTO 28021G33KT 4SM -SN OVC021 M04/M08 A2886 RMK AO2 PK WND 27033/1503 P0000 T10441083 TSNO
PAKN 111454Z AUTO 28022G30KT 2SM -SN OVC017 M04/M08 A2885 RMK AO2 PK WND 28036/1420 SLP770 P0002 60003 T10441078 51034 TSNO
PAKN 111428Z AUTO 28018G36KT 1SM R12/P6000FT -SN BR VV011 M04/M07 A2883 RMK AO2 PK WND 28036/1420 P0002 T10441067 TSNO
PAKN 111411Z AUTO 27021G33KT 3/4SM R12/4500VP6000FT -SN BR VV012 M04/M07 A2881 RMK AO2 PK WND 28033/1406 P0001 T10441067 TSNO
PAKN 111404Z AUTO 28021G31KT 1/2SM R12/4500V5500FT SN FZFG VV015 M04/M06 A2881 RMK AO2 PK WND 28031/1357 P0001 T10441061 TSNO
PAKN 111354Z AUTO 28023G31KT 1 1/4SM R12/6000VP6000FT -SN BR OVC025 M04/M07 A2880 RMK AO2 PK WND 27036/1332 UPB30E31SNE30B31 SLP755 P0001 T10441067 TSNO
PAKN 111347Z AUTO 27021G31KT 2SM -SN OVC029 M04/M07 A2880 RMK AO2 PK WND 27036/1332 UPB30E31SNE30B31 P0001 T10391067 TSNO
PAKN 111326Z AUTO 28025G30KT 4SM -SN OVC033 M04/M07 A2878 RMK AO2 PK WND 28033/1256 P0001 T10391067 TSNO
PAKN 111315Z AUTO 28024G32KT 3SM -SN BR OVC025 M04/M06 A2877 RMK AO2 PK WND 28033/1256 P0000 T10391061 TSNO
PAKN 111254Z 28024G33KT 1SM R12/P6000FT -SN BR FEW010 OVC015 M03/M05 A2875 RMK AO2 PK WND 28033/1253 SLP737 P0000 T10331050
PAKN 111243Z 27022G33KT 1 1/4SM -SN BR SCT010 OVC016 M03/M05 A2874 RMK AO2 PK WND 27033/1240 P0000 T10331050
PAKN 111234Z 28022G29KT 1 3/4SM -SN BR BKN009 OVC016 M03/M04 A2874 RMK AO2 PK WND 28032/1221 P0000 T10281044
PAKN 111214Z 28021G31KT 3SM -SN BR OVC009 M02/M04 A2871 RMK AO2 PK WND 28031/1213 P0000 T10221039
PAKN 111201Z 27023G30KT 2 1/2SM -SN BR OVC008 M02/M03 A2870 RMK AO2 PK WND 27030/1200 P0000 T10221033
PAKN 111154Z 27020G30KT 1 1/2SM -SN BR SCT007 OVC010 M02/M03 A2870 RMK AO2 PK WND 27030/1154 SLP718 P0004 60004 70005 I6003 T10171028 10006 21017 52051
PAKN 111054Z 26008KT 1 1/2SM -SN BR SCT007 OVC010 00/M01 A2864 RMK AO2 FZRAB39E52SNB52 SLP700 P0000 I1002 T00001006
PAKN 111045Z 28006KT 1 1/2SM -FZRA BR SCT007 OVC010 00/M01 A2864 RMK AO2 FZRAB39 P0000 I1002 T00001011
PAKN 110954Z 31009KT 1 1/2SM BR SCT007 OVC010 00/M01 A2860 RMK AO2 SLP685 I1001 T00001011
PAKN 110931Z 32005KT 1 1/2SM BR SCT007 OVC010 00/M01 A2858 RMK AO2 I1000 T00001006
PAKN 110923Z 32005KT 2 1/2SM BR OVC007 00/M01 A2857 RMK AO2 I1000 T00001006
PAKN 110854Z 35004KT 7SM OVC009 00/M01 A2854 RMK AO2 SLP667 I3000 T00001011 400331006 53005
PAKN 110754Z 14009KT 8SM OVC009 00/M01 A2852 RMK AO2 SLP657 I1000 T00001011
PAKN 110704Z 14010KT 5SM BR OVC009 00/M01 A2852 RMK AO2 I1000 T00001011
PAKN 110654Z 15011KT 4SM BR OVC010 00/M01 A2852 RMK AO2 SLP659 T00001011
PAKN 110613Z 17013KT 10SM OVC014 00/M02 A2853 RMK AO2 T00001017
PAKN 110554Z 18013KT 10SM OVC016 01/M02 A2853 RMK AO2 SLP661 60001 T00061017 10022 20000 50000
PAKN 110531Z 18014KT 10SM OVC015 01/M01 A2853 RMK AO2 T00061011
PAKN 110520Z 18013KT 10SM BKN013 01/M01 A2853 RMK AO2 T00061011
PAKN 110454Z 18010KT 10SM BKN019 01/M01 A2853 RMK AO2 SNB0358E07 SLP661 P0000 T00061006
PAKN 110354Z 18009KT 10SM BKN020 OVC030 01/00 A2853 RMK AO2 SNB0258E09B30E40 SLP662 P0000 T00060000
PAKN 110254Z 18006KT 7SM BKN005 BKN015 OVC021 01/00 A2853 RMK AO2 SNB04E34 SLP661 P0001 60001 T00060000 56005
PAKN 110214Z 16006KT 3/4SM R12/P6000FT -SN BR BKN007 OVC012 01/M01 A2853 RMK AO2 SNB04 P0000 T00061006
PAKN 110206Z COR 16006KT 3/4SM R12/P6000FT -SN BR BKN007 OVC012 01/M01 A2853 RMK AO2 SNB04 P0000 T00061006
PAKN 110154Z 16006KT 10SM BKN005 BKN014 OVC022 01/M01 A2853 RMK AO2 SLP662 T00061006